Time;durP1;ratioP1;P1;durP2;ratioP2;P2;SDS_P1;SDS_P2;PMS_P1;PMS_P2;Temp;Humidity;BMP_temperature;BMP_pressure;BME280_temperature;BME280_humidity;BME280_pressure;Samples;Min_cycle;Max_cycle;Signal;HPM_P1;HPM_P2
2021/07/05 00:00:24;;;;;;;11.80;7.37;;;;;;;17.20;89.00;100579.75;4970220;28;20460;-75
2021/07/05 00:02:50;;;;;;;10.05;6.60;;;;;;;17.09;88.80;100575.00;4970038;28;20418;-76
2021/07/05 00:05:15;;;;;;;10.07;7.32;;;;;;;17.03;88.47;100582.06;4970180;28;20043;-76
2021/07/05 00:07:47;;;;;;;9.57;7.75;;;;;;;16.92;88.40;100574.59;4968914;28;20043;-76
2021/07/05 00:10:15;;;;;;;8.32;7.28;;;;;;;16.87;88.75;100579.78;4970001;28;20054;-76
2021/07/05 00:12:45;;;;;;;12.20;7.82;;;;;;;16.79;88.88;100590.81;4969035;28;20111;-76
2021/07/05 00:15:11;;;;;;;8.05;6.90;;;;;;;16.85;89.43;100590.78;4969907;28;20038;-76
2021/07/05 00:17:37;;;;;;;10.35;6.53;;;;;;;16.82;89.20;100584.97;4969587;28;20107;-76
2021/07/05 00:20:05;;;;;;;8.90;6.97;;;;;;;16.66;88.83;100586.19;4952847;28;20038;-76
2021/07/05 00:22:30;;;;;;;8.80;7.03;;;;;;;16.60;89.19;100577.06;4969509;28;20070;-76
2021/07/05 00:24:56;;;;;;;10.53;7.13;;;;;;;16.55;89.15;100574.16;4968738;28;20070;-76
2021/07/05 00:27:21;;;;;;;8.30;7.17;;;;;;;16.46;89.48;100570.00;4968548;28;20119;-76
2021/07/05 00:29:46;;;;;;;13.37;7.33;;;;;;;16.45;90.45;100568.34;4952746;28;20035;-76
2021/07/05 00:32:12;;;;;;;10.23;7.33;;;;;;;16.48;90.47;100575.19;4968783;28;20058;-76
2021/07/05 00:34:37;;;;;;;8.73;7.10;;;;;;;16.43;90.17;100562.31;4969818;28;20100;-76
2021/07/05 00:37:02;;;;;;;8.37;7.00;;;;;;;16.43;90.45;100568.53;4968348;28;20110;-76
2021/07/05 00:39:28;;;;;;;9.00;6.93;;;;;;;16.38;90.52;100552.16;4969649;28;20104;-76
2021/07/05 00:41:53;;;;;;;10.37;7.93;;;;;;;16.39;91.35;100559.22;4968793;28;20054;-76
2021/07/05 00:44:18;;;;;;;11.93;8.20;;;;;;;16.43;91.91;100565.84;4969668;28;20047;-76
2021/07/05 00:46:44;;;;;;;8.83;7.80;;;;;;;16.50;92.29;100560.47;4968487;28;20050;-75
2021/07/05 00:49:10;;;;;;;12.95;9.15;;;;;;;16.58;91.47;100562.16;4969554;28;20039;-76
2021/07/05 00:51:35;;;;;;;12.17;9.43;;;;;;;16.62;91.53;100557.97;4968583;28;20046;-76
2021/07/05 00:54:01;;;;;;;9.77;8.73;;;;;;;16.64;91.80;100566.69;4969382;28;20127;-76
2021/07/05 00:56:26;;;;;;;10.50;8.70;;;;;;;16.63;91.66;100565.03;4968972;28;20134;-76
2021/07/05 00:58:54;;;;;;;10.93;9.20;;;;;;;16.65;91.89;100560.28;4972847;28;20156;-76
2021/07/05 01:01:19;;;;;;;11.15;8.68;;;;;;;16.64;91.79;100553.22;4972848;28;20038;-76
2021/07/05 01:03:45;;;;;;;10.63;9.40;;;;;;;16.64;91.59;100551.34;4971743;28;20039;-76
2021/07/05 01:06:10;;;;;;;14.90;9.82;;;;;;;16.62;91.13;100548.06;4972429;28;20038;-76
2021/07/05 01:08:36;;;;;;;13.37;9.13;;;;;;;16.56;91.69;100542.66;4972664;28;20074;-76
2021/07/05 01:11:01;;;;;;;15.20;9.73;;;;;;;16.57;91.64;100538.91;4971777;28;20115;-76
2021/07/05 01:13:27;;;;;;;11.60;9.83;;;;;;;16.53;91.46;100541.22;4972574;28;20095;-76
2021/07/05 01:15:52;;;;;;;15.70;10.13;;;;;;;16.55;92.13;100533.75;4972381;28;20038;-76
2021/07/05 01:18:17;;;;;;;14.57;10.97;;;;;;;16.58;92.39;100525.25;4972498;28;20037;-75
2021/07/05 01:20:44;;;;;;;15.63;11.02;;;;;;;16.60;92.33;100528.56;4972336;28;20408;-76
2021/07/05 01:23:10;;;;;;;12.53;9.90;;;;;;;16.64;91.93;100521.69;4972278;28;20035;-76
2021/07/05 01:25:37;;;;;;;14.38;9.98;;;;;;;16.66;92.36;100524.19;4971442;28;20379;-76
2021/07/05 01:28:04;;;;;;;13.05;10.52;;;;;;;16.63;92.26;100516.53;4971203;28;20096;-76
2021/07/05 01:30:30;;;;;;;13.15;10.25;;;;;;;16.57;92.10;100515.47;4972365;28;20125;-76
2021/07/05 01:32:59;;;;;;;14.80;10.23;;;;;;;16.54;92.22;100510.50;4971321;28;20085;-76
2021/07/05 01:35:25;;;;;;;12.70;10.35;;;;;;;16.57;92.40;100514.66;4971222;28;20038;-76
2021/07/05 01:37:51;;;;;;;16.52;11.80;;;;;;;16.58;92.63;100514.47;4954960;28;20039;-76
2021/07/05 01:40:19;;;;;;;13.57;11.50;;;;;;;16.53;92.31;100510.72;4972299;28;20034;-76
2021/07/05 01:42:53;;;;;;;15.50;10.45;;;;;;;16.52;91.99;100509.06;4971007;28;20038;-76
2021/07/05 01:45:20;;;;;;;14.27;12.30;;;;;;;16.52;92.83;100517.16;4972185;28;20035;-76
2021/07/05 01:47:46;;;;;;;15.77;13.05;;;;;;;16.56;93.19;100504.94;4971797;28;20085;-76
2021/07/05 01:50:12;;;;;;;17.10;11.40;;;;;;;16.59;92.81;100504.50;4971987;28;20078;-76
2021/07/05 01:52:37;;;;;;;14.50;11.10;;;;;;;16.59;92.76;100507.19;4971113;28;20134;-76
2021/07/05 01:55:04;;;;;;;13.57;10.87;;;;;;;16.54;92.21;100504.31;4971964;28;20383;-76
2021/07/05 01:57:33;;;;;;;16.95;12.55;;;;;;;16.54;92.55;100504.31;4971648;28;20052;-76
2021/07/05 02:00:03;;;;;;;16.50;11.93;;;;;;;16.60;92.57;100495.38;4954916;28;20101;-76
2021/07/05 02:02:29;;;;;;;17.85;12.18;;;;;;;16.58;92.45;100502.84;4971382;28;20488;-76
2021/07/05 02:04:55;;;;;;;20.67;12.40;;;;;;;16.57;93.21;100503.88;4970822;28;20054;-75
2021/07/05 02:07:21;;;;;;;15.10;11.60;;;;;;;16.59;92.92;100499.13;4970425;28;20043;-77
2021/07/05 02:09:46;;;;;;;;;;;;;;;16.62;92.76;100493.28;4972185;28;20131;-75
2021/07/05 02:12:13;;;;;;;20.65;12.18;;;;;;;16.64;92.73;100493.91;4970836;28;19995;-75
2021/07/05 02:14:40;;;;;;;14.95;11.57;;;;;;;16.60;92.67;100490.81;4970670;28;20043;-75
2021/07/05 02:17:07;;;;;;;15.82;11.93;;;;;;;16.56;92.48;100486.88;4971392;28;20037;-76
2021/07/05 02:19:33;;;;;;;13.65;10.82;;;;;;;16.56;92.43;100483.38;4971682;28;20057;-76
2021/07/05 02:21:58;;;;;;;19.23;13.23;;;;;;;16.57;92.75;100485.00;4971559;28;20460;-76
2021/07/05 02:24:24;;;;;;;18.13;12.13;;;;;;;16.61;92.43;100473.59;4970584;28;20460;-76
2021/07/05 02:26:49;;;;;;;16.73;11.93;;;;;;;16.63;92.66;100481.50;4970292;28;20030;-76
2021/07/05 02:29:14;;;;;;;17.37;12.03;;;;;;;16.63;92.51;100482.31;4971574;28;20474;-75
2021/07/05 02:31:40;;;;;;;14.17;11.30;;;;;;;16.66;92.17;100467.59;4971424;28;20432;-76
2021/07/05 02:34:06;;;;;;;15.45;12.57;;;;;;;16.68;91.98;100481.69;4970514;28;20124;-76
2021/07/05 02:36:31;;;;;;;16.43;11.53;;;;;;;16.60;92.29;100479.19;4970151;28;20047;-76
2021/07/05 02:38:57;;;;;;;17.52;12.48;;;;;;;16.60;92.24;100479.19;4970438;28;20468;-76
2021/07/05 02:41:22;;;;;;;16.77;10.17;;;;;;;16.63;92.46;100485.00;4970251;28;20121;-76
2021/07/05 02:43:47;;;;;;;19.80;13.10;;;;;;;16.58;92.36;100475.91;4970309;28;20070;-76
2021/07/05 02:46:13;;;;;;;21.10;11.33;;;;;;;16.60;91.72;100481.88;4970760;28;20456;-75
2021/07/05 02:48:40;;;;;;;13.97;9.90;;;;;;;16.61;91.83;100480.88;4971257;28;20042;-76
2021/07/05 02:51:07;;;;;;;18.00;12.80;;;;;;;16.60;91.34;100479.19;4970188;28;20426;-76
2021/07/05 02:53:33;;;;;;;18.48;12.60;;;;;;;16.57;91.71;100490.41;4971097;28;20073;-76
2021/07/05 02:55:58;;;;;;;19.63;11.00;;;;;;;16.59;91.82;100486.47;4970833;28;20074;-76
2021/07/05 02:58:24;;;;;;;21.60;13.50;;;;;;;16.50;91.32;100486.88;4971197;28;20041;-76
2021/07/05 03:00:52;;;;;;;15.18;12.30;;;;;;;16.38;92.16;100476.72;4970019;28;20039;-76
2021/07/05 03:03:18;;;;;;;13.55;11.43;;;;;;;16.46;92.29;100491.88;4969952;28;20380;-76
2021/07/05 03:05:44;;;;;;;19.48;12.43;;;;;;;16.46;91.83;100486.47;4970052;28;20136;-76
2021/07/05 03:08:09;;;;;;;23.23;12.05;;;;;;;16.43;92.53;100490.41;4970660;28;20038;-75
2021/07/05 03:10:38;;;;;;;22.27;13.27;;;;;;;16.43;92.04;100487.69;4970853;28;20107;-75
2021/07/05 03:13:06;;;;;;;21.73;13.23;;;;;;;16.48;92.31;100492.47;4970838;28;20354;-75
2021/07/05 03:15:31;;;;;;;18.70;12.40;;;;;;;16.50;92.94;100492.28;4953632;28;20046;-76
2021/07/05 03:17:57;;;;;;;21.13;13.07;;;;;;;16.51;92.54;100489.38;4953626;28;20034;-75
2021/07/05 03:20:26;;;;;;;19.30;13.13;;;;;;;16.43;92.45;100487.69;4969129;28;20038;-75
2021/07/05 03:22:53;;;;;;;20.70;13.75;;;;;;;16.36;92.99;100484.19;4969691;28;20092;-76
2021/07/05 03:25:21;;;;;;;15.55;13.18;;;;;;;16.41;93.23;100495.19;4970492;28;20037;-76
2021/07/05 03:27:47;;;;;;;24.55;15.07;;;;;;;16.34;93.24;100485.41;4970150;28;20095;-75
2021/07/05 03:30:14;;;;;;;19.13;14.02;;;;;;;16.38;93.04;100492.88;4970327;28;20052;-76
2021/07/05 03:32:40;;;;;;;21.30;14.20;;;;;;;16.42;92.92;100496.84;4969327;28;20078;-76
2021/07/05 03:35:08;;;;;;;18.27;12.20;;;;;;;16.44;92.81;100494.75;4969462;28;20074;-76
2021/07/05 03:37:34;;;;;;;17.55;12.15;;;;;;;16.52;92.23;100496.41;4969905;28;20525;-75
2021/07/05 03:39:59;;;;;;;15.88;12.82;;;;;;;16.56;92.18;100494.16;4969661;28;20046;-76
2021/07/05 03:42:25;;;;;;;22.87;13.50;;;;;;;16.56;92.52;100494.97;4968759;28;20051;-77
2021/07/05 03:44:50;;;;;;;16.90;12.10;;;;;;;16.67;92.16;100497.03;4968604;28;20050;-76
2021/07/05 03:47:15;;;;;;;18.67;13.17;;;;;;;16.67;91.80;100488.13;4968372;28;20137;-76
2021/07/05 03:49:41;;;;;;;19.13;12.67;;;;;;;16.78;91.95;100497.44;4969431;28;20089;-76
2021/07/05 03:52:06;;;;;;;16.80;12.20;;;;;;;16.85;90.58;100492.88;4968598;28;20058;-76
2021/07/05 03:54:32;;;;;;;23.57;13.93;;;;;;;16.77;91.01;100491.22;4952561;28;20066;-76
2021/07/05 03:56:57;;;;;;;21.30;12.60;;;;;;;16.85;90.60;100498.28;4969226;28;20436;-76
2021/07/05 03:59:23;;;;;;;12.10;10.67;;;;;;;16.93;90.04;100487.28;4952366;28;20533;-76
2021/07/05 04:01:48;;;;;;;16.27;12.02;;;;;;;16.85;89.82;100493.72;4969368;28;20057;-76
2021/07/05 04:04:14;;;;;;;14.23;11.23;;;;;;;16.90;90.19;100492.25;4968282;28;20142;-75
2021/07/05 04:06:39;;;;;;;15.53;12.30;;;;;;;17.02;89.60;100485.19;4967740;28;20027;-76
2021/07/05 04:09:05;;;;;;;16.33;11.53;;;;;;;16.96;89.69;100475.25;4969007;28;20050;-76
2021/07/05 04:11:32;;;;;;;17.48;11.73;;;;;;;17.06;89.51;100486.41;4968058;28;20035;-76
2021/07/05 04:13:57;;;;;;;20.88;11.82;;;;;;;17.06;89.38;100492.63;4968801;28;20457;-76
2021/07/05 04:16:25;;;;;;;24.43;11.30;;;;;;;17.01;88.96;100491.63;4968614;28;20039;-76
2021/07/05 04:18:50;;;;;;;19.40;12.75;;;;;;;16.97;89.44;100501.16;4968238;28;20443;-76
2021/07/05 04:21:15;;;;;;;19.00;11.80;;;;;;;17.03;88.96;100489.56;4968232;28;20070;-76
2021/07/05 04:23:41;;;;;;;19.43;11.83;;;;;;;17.17;88.25;100496.56;4967924;28;20078;-76
2021/07/05 04:26:06;;;;;;;16.27;11.17;;;;;;;17.08;87.94;100495.13;4967900;28;20041;-76
2021/07/05 04:28:32;;;;;;;14.97;11.10;;;;;;;17.08;88.05;100493.25;4968043;28;20031;-76
2021/07/05 04:30:57;;;;;;;11.67;10.47;;;;;;;17.09;87.83;100500.31;4966753;28;20034;-76
2021/07/05 04:33:23;;;;;;;13.63;10.80;;;;;;;17.20;87.16;100496.13;4968116;28;20088;-75
2021/07/05 04:35:48;;;;;;;17.83;10.23;;;;;;;17.16;86.99;100496.75;4968868;28;20049;-76
2021/07/05 04:38:14;;;;;;;14.07;10.37;;;;;;;17.15;87.14;100493.25;4951685;28;20035;-76
2021/07/05 04:40:41;;;;;;;15.53;10.30;;;;;;;17.21;86.85;100494.28;4967770;28;20038;-76
2021/07/05 04:43:10;;;;;;;17.17;10.63;;;;;;;17.30;86.01;100488.44;4934215;28;1028991;-76
2021/07/05 04:45:37;;;;;;;14.73;10.65;;;;;;;17.54;85.94;100491.44;4968688;28;20070;-76
2021/07/05 04:48:04;;;;;;;11.63;9.65;;;;;;;17.75;84.65;100494.84;4968393;28;20039;-76
2021/07/05 04:50:30;;;;;;;14.27;9.88;;;;;;;18.03;83.97;100484.56;4968577;28;20047;-76
2021/07/05 04:52:56;;;;;;;21.55;9.98;;;;;;;18.09;83.09;100489.06;4968573;28;20112;-76
2021/07/05 04:55:22;;;;;;;12.05;8.90;;;;;;;18.07;82.11;100488.47;4969386;28;20130;-76
2021/07/05 04:57:49;;;;;;;21.63;10.50;;;;;;;17.91;83.00;100480.88;4968301;28;20068;-75
2021/07/05 05:00:34;;;;;;;12.88;9.48;;;;;;;17.85;83.59;100482.59;4968486;28;20042;-76
2021/07/05 05:03:04;;;;;;;15.25;8.80;;;;;;;17.96;83.57;100475.69;4969379;28;20046;-76
2021/07/05 05:05:30;;;;;;;11.65;8.65;;;;;;;17.93;83.63;100476.09;4969287;28;20035;-76
2021/07/05 05:07:56;;;;;;;13.00;9.45;;;;;;;17.86;84.12;100478.00;4968695;28;20046;-76
2021/07/05 05:10:22;;;;;;;;;;;;;;;17.96;83.37;100478.38;4968745;28;20103;-76
2021/07/05 05:12:47;;;;;;;;;;;;;;;17.96;83.56;100470.28;4969668;28;20330;-76
2021/07/05 05:15:13;;;;;;;9.30;8.23;;;;;;;18.00;83.73;100476.88;4952417;28;19928;-76
2021/07/05 05:17:39;;;;;;;11.95;9.00;;;;;;;18.06;82.72;100484.13;4951847;28;20046;-76
2021/07/05 05:20:07;;;;;;;9.57;8.57;;;;;;;17.94;82.54;100485.88;4969017;28;20464;-75
2021/07/05 05:22:33;;;;;;;10.90;8.00;;;;;;;17.90;83.02;100480.06;4967999;28;20045;-76
2021/07/05 05:24:58;;;;;;;11.43;7.68;;;;;;;17.84;82.61;100477.41;4969186;28;20035;-76
2021/07/05 05:27:24;;;;;;;13.13;8.73;;;;;;;17.73;83.05;100484.28;4967891;28;20100;-75
2021/07/05 05:29:49;;;;;;;11.53;7.27;;;;;;;17.75;83.06;100476.81;4952104;28;20042;-75
2021/07/05 05:32:14;;;;;;;10.23;7.83;;;;;;;17.74;83.55;100475.13;4968940;28;20441;-76
2021/07/05 05:34:40;;;;;;;9.50;8.50;;;;;;;17.66;83.55;100473.53;4968014;28;20031;-76
2021/07/05 05:37:05;;;;;;;10.93;8.33;;;;;;;17.55;85.54;100468.81;4967413;28;20054;-76
2021/07/05 05:39:31;;;;;;;13.70;9.10;;;;;;;17.48;85.96;100466.13;4951903;28;20574;-76
2021/07/05 05:41:56;;;;;;;11.57;8.43;;;;;;;17.42;86.77;100472.41;4968965;28;20082;-76
2021/07/05 05:44:21;;;;;;;12.63;9.40;;;;;;;17.18;86.92;100473.09;4972193;28;20034;-77
2021/07/05 05:46:47;;;;;;;19.40;11.07;;;;;;;17.16;87.20;100459.84;4955011;28;20058;-76
2021/07/05 05:49:12;;;;;;;18.13;11.37;;;;;;;17.08;87.88;100473.56;4971122;28;20071;-76
2021/07/05 05:51:37;;;;;;;13.73;9.77;;;;;;;17.23;88.22;100474.13;4972001;28;20050;-75
2021/07/05 05:54:09;;;;;;;15.90;10.63;;;;;;;17.23;88.03;100478.69;4970894;28;20092;-74
2021/07/05 05:56:36;;;;;;;14.82;10.38;;;;;;;17.33;86.54;100478.25;4970390;28;20044;-75
2021/07/05 05:59:06;;;;;;;15.85;11.32;;;;;;;17.34;86.65;100474.50;4970664;28;20077;-75
2021/07/05 06:01:33;;;;;;;18.23;12.07;;;;;;;17.27;87.44;100474.53;4970592;28;20061;-75
2021/07/05 06:03:58;;;;;;;16.38;11.45;;;;;;;17.22;88.54;100477.88;4971500;28;20035;-75
2021/07/05 06:06:24;;;;;;;16.95;12.25;;;;;;;17.11;89.14;100475.81;4953890;28;20037;-76
2021/07/05 06:08:50;;;;;;;16.17;11.60;;;;;;;17.14;88.66;100480.81;4971628;28;20062;-75
2021/07/05 06:11:16;;;;;;;16.55;11.43;;;;;;;17.19;89.09;100475.59;4970767;28;20458;-75
2021/07/05 06:13:41;;;;;;;18.00;12.75;;;;;;;17.22;89.32;100469.78;4954604;28;20097;-75
2021/07/05 06:16:07;;;;;;;21.00;13.60;;;;;;;17.22;90.40;100464.38;4971329;28;20096;-75
2021/07/05 06:18:33;;;;;;;21.63;13.33;;;;;;;17.29;90.90;100473.28;4970649;28;20293;-75
2021/07/05 06:20:58;;;;;;;17.15;12.90;;;;;;;17.25;90.93;100466.63;4971373;28;20085;-75
2021/07/05 06:23:26;;;;;;;18.70;12.73;;;;;;;17.26;91.22;100468.31;4971487;28;20082;-75
2021/07/05 06:25:51;;;;;;;19.85;14.77;;;;;;;17.16;91.24;100476.03;4971247;28;20546;-75
2021/07/05 06:28:18;;;;;;;17.77;12.70;;;;;;;17.24;91.82;100470.38;4971623;28;20043;-76
2021/07/05 06:30:45;;;;;;;21.35;14.30;;;;;;;17.30;91.38;100474.09;4971410;28;20059;-75
2021/07/05 06:33:12;;;;;;;20.25;14.23;;;;;;;17.05;91.18;100474.00;4970580;28;20042;-76
2021/07/05 06:35:37;;;;;;;20.10;13.75;;;;;;;17.06;91.45;100479.16;4971165;28;20046;-75
2021/07/05 06:38:03;;;;;;;14.65;11.45;;;;;;;17.20;91.90;100482.63;4970755;28;20065;-75
2021/07/05 06:40:28;;;;;;;20.00;13.57;;;;;;;17.19;91.30;100481.00;4970265;28;20446;-75
2021/07/05 06:42:54;;;;;;;18.50;14.20;;;;;;;17.22;91.76;100487.84;4954071;28;20034;-74
2021/07/05 06:45:19;;;;;;;22.43;13.40;;;;;;;17.22;91.00;100491.34;4970413;28;20038;-74
2021/07/05 06:47:44;;;;;;;17.40;13.03;;;;;;;17.29;89.98;100485.94;4969918;28;20507;-75
2021/07/05 06:50:10;;;;;;;19.07;13.03;;;;;;;17.27;90.49;100491.53;4970222;28;20054;-75
2021/07/05 06:52:35;;;;;;;20.02;14.20;;;;;;;17.43;91.36;100498.34;4970198;28;20372;-75
2021/07/05 06:55:02;;;;;;;24.77;15.80;;;;;;;17.32;90.92;100492.78;4969232;28;20133;-75
2021/07/05 06:57:32;;;;;;;22.85;15.63;;;;;;;17.34;90.57;100493.41;4970666;28;20093;-75
2021/07/05 07:00:00;;;;;;;21.98;14.98;;;;;;;17.26;91.18;100498.00;4953933;28;20092;-75
2021/07/05 07:02:26;;;;;;;22.27;13.98;;;;;;;17.21;92.02;100495.09;4969801;28;20088;-76
2021/07/05 07:04:51;;;;;;;19.33;13.93;;;;;;;17.21;91.49;100496.97;4953856;28;20108;-75
2021/07/05 07:07:17;;;;;;;20.50;14.57;;;;;;;17.22;90.20;100499.44;4970477;28;20465;-74
2021/07/05 07:09:42;;;;;;;23.37;15.77;;;;;;;17.09;91.15;100499.47;4953850;28;20042;-74
2021/07/05 07:12:08;;;;;;;22.97;15.70;;;;;;;17.13;91.51;100489.09;4970733;28;20467;-74
2021/07/05 07:14:33;;;;;;;26.45;17.65;;;;;;;17.05;91.44;100492.88;4969768;28;20112;-74
2021/07/05 07:17:15;;;;;;;28.30;17.87;;;;;;;16.98;92.17;100492.06;4970324;28;20467;-74
2021/07/05 07:19:40;;;;;;;26.23;18.52;;;;;;;16.78;91.86;100498.25;4970683;28;20075;-74
2021/07/05 07:22:05;;;;;;;31.47;18.57;;;;;;;16.77;93.16;100504.69;4970418;28;20038;-74
2021/07/05 07:24:32;;;;;;;27.07;16.97;;;;;;;16.82;92.39;100504.09;4969784;28;20066;-74
2021/07/05 07:26:58;;;;;;;;;;;;;;;16.83;91.35;100501.22;4969870;28;20062;-74
2021/07/05 07:29:23;;;;;;;;;;;;;;;16.88;91.31;100501.41;4970022;28;19914;-74
2021/07/05 07:31:48;;;;;;;28.63;15.67;;;;;;;17.02;92.32;100486.03;4969446;28;20004;-75
2021/07/05 07:34:14;;;;;;;29.07;15.87;;;;;;;17.17;91.76;100484.94;4969433;28;20034;-75
2021/07/05 07:36:41;;;;;;;23.20;16.07;;;;;;;17.32;91.13;100492.78;4969202;28;20444;-74
2021/07/05 07:39:14;;;;;;;24.13;17.10;;;;;;;17.19;91.68;100486.38;4969189;28;20043;-71
2021/07/05 07:41:39;;;;;;;24.02;15.85;;;;;;;17.19;91.30;100497.19;4970259;28;20047;-72
2021/07/05 07:44:05;;;;;;;21.37;16.00;;;;;;;17.29;91.29;100494.03;4969115;28;20091;-72
2021/07/05 07:46:31;;;;;;;23.92;16.58;;;;;;;17.40;91.57;100503.34;4969854;28;20507;-72
2021/07/05 07:48:56;;;;;;;20.02;16.02;;;;;;;17.42;90.42;100494.00;4969095;28;20081;-72
2021/07/05 07:51:22;;;;;;;22.67;17.13;;;;;;;17.38;90.97;100498.16;4969259;28;20042;-72
2021/07/05 07:53:48;;;;;;;21.80;15.60;;;;;;;17.50;90.43;100496.44;4970144;28;20359;-72
2021/07/05 07:56:13;;;;;;;22.15;15.77;;;;;;;17.17;91.38;100493.03;4968777;28;20275;-72
2021/07/05 07:58:39;;;;;;;23.93;16.17;;;;;;;17.39;91.69;100490.88;4968411;28;20109;-72
2021/07/05 08:01:04;;;;;;;21.10;16.03;;;;;;;17.40;89.53;100495.25;4968801;28;20054;-72
2021/07/05 08:03:30;;;;;;;30.10;18.50;;;;;;;17.22;91.61;100491.34;4968983;28;20027;-72
2021/07/05 08:05:55;;;;;;;27.13;18.40;;;;;;;17.60;93.03;100487.88;4968543;28;20666;-72
2021/07/05 08:08:21;;;;;;;21.50;16.77;;;;;;;17.84;89.75;100496.28;4970121;28;20034;-72
2021/07/05 08:10:47;;;;;;;24.35;16.35;;;;;;;17.77;90.17;100495.47;4968952;28;20755;-72
2021/07/05 08:13:13;;;;;;;23.75;17.13;;;;;;;17.88;89.41;100492.13;4953194;28;20103;-72
2021/07/05 08:15:39;;;;;;;22.70;16.45;;;;;;;17.79;88.19;100494.22;4968792;28;20428;-72
2021/07/05 08:18:04;;;;;;;20.80;16.10;;;;;;;17.71;88.09;100492.59;4969486;28;20035;-72
2021/07/05 08:20:30;;;;;;;19.00;15.23;;;;;;;17.81;88.18;100491.34;4968881;28;20349;-72
2021/07/05 08:22:56;;;;;;;23.65;16.23;;;;;;;18.13;88.57;100490.31;4969474;28;20031;-72
2021/07/05 08:25:23;;;;;;;22.50;16.30;;;;;;;18.19;87.66;100488.63;4969815;28;20046;-72
2021/07/05 08:27:49;;;;;;;21.55;16.80;;;;;;;18.47;86.21;100477.38;4968503;28;20046;-72
2021/07/05 08:30:16;;;;;;;20.67;15.70;;;;;;;18.59;83.62;100482.91;4968736;28;20137;-72
2021/07/05 08:32:41;;;;;;;23.23;16.55;;;;;;;18.77;84.53;100482.13;4969719;28;20146;-72
2021/07/05 08:35:08;;;;;;;18.30;14.07;;;;;;;19.02;83.35;100475.84;4952381;28;20475;-72
2021/07/05 08:37:34;;;;;;;18.55;14.18;;;;;;;18.61;83.22;100469.13;4968322;28;20630;-72
2021/07/05 08:39:59;;;;;;;;;;;;;;;18.98;82.44;100460.03;4968627;28;20030;-72
2021/07/05 08:42:25;;;;;;;;;;;;;;;19.20;81.75;100470.44;4969689;28;19918;-72
2021/07/05 08:44:52;;;;;;;17.55;14.73;;;;;;;18.85;82.49;100475.63;4969382;28;19922;-71
2021/07/05 08:47:18;;;;;;;;;;;;;;;18.68;85.73;100470.75;4968633;28;20039;-72
2021/07/05 08:49:47;;;;;;;;;;;;;;;18.21;84.70;100472.16;4969017;28;20335;-72
2021/07/05 08:52:12;;;;;;;20.25;16.27;;;;;;;18.33;87.42;100467.69;4968422;28;19922;-72
2021/07/05 08:54:37;;;;;;;22.47;16.23;;;;;;;18.43;86.98;100468.06;4968298;28;20062;-72
2021/07/05 08:57:04;;;;;;;20.97;15.37;;;;;;;18.54;86.14;100474.59;4951991;28;20145;-72
2021/07/05 08:59:32;;;;;;;23.73;16.38;;;;;;;18.21;84.82;100475.69;4968489;28;20043;-72
2021/07/05 09:01:57;;;;;;;18.23;14.30;;;;;;;18.30;87.06;100481.66;4969195;28;20030;-72
2021/07/05 09:04:22;;;;;;;19.47;14.43;;;;;;;18.55;84.25;100481.69;4968447;28;20511;-72
2021/07/05 09:07:07;;;;;;;17.23;14.30;;;;;;;18.52;85.51;100485.66;4967826;28;20034;-72
2021/07/05 09:09:34;;;;;;;20.85;14.57;;;;;;;18.23;85.48;100481.72;4968937;28;20043;-72
2021/07/05 09:12:08;;;;;;;22.42;16.13;;;;;;;18.18;85.62;100480.72;4951967;28;20573;-73
2021/07/05 09:14:35;;;;;;;17.27;14.10;;;;;;;18.56;84.72;100467.91;4968320;28;20432;-73
2021/07/05 09:17:09;;;;;;;19.05;14.07;;;;;;;18.75;84.54;100481.47;4967914;28;20077;-73
2021/07/05 09:19:37;;;;;;;17.13;12.82;;;;;;;18.93;83.76;100478.84;4972464;28;20130;-72
2021/07/05 09:22:09;;;;;;;18.58;14.60;;;;;;;18.83;80.97;100478.53;4971308;28;20114;-73
2021/07/05 09:24:41;;;;;;;18.50;14.43;;;;;;;18.75;84.14;100478.78;4954847;28;20038;-72
2021/07/05 09:27:23;;;;;;;15.65;12.57;;;;;;;19.03;80.93;100472.06;4971006;28;20049;-72
2021/07/05 09:29:49;;;;;;;18.63;14.45;;;;;;;19.02;82.25;100475.84;4971322;28;20043;-72
2021/07/05 09:32:26;;;;;;;;;;;;;;;19.38;79.91;100472.28;4972578;28;20131;-72
2021/07/05 09:34:52;;;;;;;13.23;10.68;;;;;;;19.48;77.58;100469.88;4972243;28;20357;-72
2021/07/05 09:37:22;;;;;;;17.98;11.05;;;;;;;19.71;78.92;100473.75;4971806;28;20069;-72
2021/07/05 09:40:03;;;;;;;13.38;10.32;;;;;;;19.75;76.34;100475.78;4971374;28;20030;-72
2021/07/05 09:42:49;;;;;;;14.13;11.40;;;;;;;19.79;75.70;100466.16;4971955;28;20052;-72
2021/07/05 09:45:28;;;;;;;12.38;10.60;;;;;;;20.23;74.91;100460.50;4971990;28;20058;-72
2021/07/05 09:48:18;;;;;;;11.45;9.77;;;;;;;20.85;74.67;100462.78;4954935;28;20049;-77
2021/07/05 09:50:46;;;;;;;11.30;9.60;;;;;;;20.60;72.98;100460.31;4971162;28;20338;-77
2021/07/05 09:53:25;;;;;;;11.15;9.15;;;;;;;20.38;73.02;100470.88;4954926;28;20099;-76
2021/07/05 09:55:51;;;;;;;10.23;9.02;;;;;;;20.19;72.57;100476.41;4954800;28;20049;-76
2021/07/05 09:58:29;;;;;;;11.25;9.85;;;;;;;20.27;73.57;100477.13;4971059;28;20383;-72
2021/07/05 10:00:55;;;;;;;13.02;8.60;;;;;;;20.44;71.39;100469.97;4970876;28;20325;-71
2021/07/05 10:03:33;;;;;;;9.90;8.23;;;;;;;21.03;70.21;100481.66;4970554;28;20046;-72
2021/07/05 10:06:14;;;;;;;10.38;7.57;;;;;;;21.49;68.48;100476.38;4954413;28;20027;-72
2021/07/05 10:08:39;;;;;;;7.78;6.82;;;;;;;21.44;67.96;100479.81;4971841;28;20031;-72
2021/07/05 10:11:06;;;;;;;17.10;7.30;;;;;;;21.66;67.77;100479.16;4971888;28;20382;-72
2021/07/05 10:13:32;;;;;;;7.57;6.65;;;;;;;21.67;67.47;100472.66;4971766;28;20030;-77
2021/07/05 10:16:03;;;;;;;9.30;7.13;;;;;;;21.38;67.15;100475.31;4971550;28;20081;-77
2021/07/05 10:18:29;;;;;;;13.38;7.15;;;;;;;22.44;63.70;100474.84;4954472;28;20122;-78
2021/07/05 10:20:54;;;;;;;10.00;7.32;;;;;;;21.70;65.52;100473.00;4970915;28;20200;-78
2021/07/05 10:23:20;;;;;;;7.00;6.30;;;;;;;22.30;64.11;100471.63;4971774;28;20038;-77
2021/07/05 10:25:49;;;;;;;9.10;7.05;;;;;;;21.96;62.84;100476.19;4971601;28;20116;-77
2021/07/05 10:28:17;;;;;;;8.25;5.63;;;;;;;23.24;61.36;100474.63;4970328;28;20049;-76
2021/07/05 10:30:43;;;;;;;9.07;5.57;;;;;;;23.62;58.38;100471.00;4954367;28;20118;-73
2021/07/05 10:33:09;;;;;;;6.00;4.78;;;;;;;24.66;54.37;100471.72;4970253;28;20030;-72
2021/07/05 10:35:37;;;;;;;6.30;5.70;;;;;;;23.46;55.74;100464.56;4970462;28;20023;-73
2021/07/05 10:38:11;;;;;;;5.00;4.50;;;;;;;23.28;56.54;100470.34;4970085;28;20050;-73
2021/07/05 10:40:47;;;;;;;8.02;4.60;;;;;;;22.97;58.55;100478.09;4971353;28;20045;-73
2021/07/05 10:43:19;;;;;;;5.38;4.88;;;;;;;22.35;55.25;100473.59;4971135;28;20039;-72
2021/07/05 10:45:51;;;;;;;6.25;4.95;;;;;;;21.94;57.37;100475.59;4970304;28;20092;-74
2021/07/05 10:48:36;;;;;;;6.60;4.80;;;;;;;21.99;57.00;100472.97;4971153;28;20034;-74
2021/07/05 10:51:03;;;;;;;6.10;5.28;;;;;;;22.27;58.16;100463.97;4971222;28;20464;-73
2021/07/05 10:53:32;;;;;;;5.13;4.63;;;;;;;22.50;55.88;100460.25;4970088;28;20448;-74
2021/07/05 10:55:58;;;;;;;6.88;4.70;;;;;;;22.30;58.19;100466.19;4952909;28;20030;-73
2021/07/05 10:58:30;;;;;;;7.07;4.10;;;;;;;22.46;58.33;100466.44;4953553;28;20042;-73
2021/07/05 11:01:01;;;;;;;8.05;5.13;;;;;;;21.78;58.11;100463.63;4969493;28;20054;-73
2021/07/05 11:03:35;;;;;;;5.03;3.67;;;;;;;22.01;59.26;100475.44;4970470;28;20046;-73
2021/07/05 11:06:00;;;;;;;4.13;3.72;;;;;;;22.26;57.80;100466.94;4953051;28;20514;-73
2021/07/05 11:08:38;;;;;;;5.17;4.00;;;;;;;22.07;58.47;100469.03;4953353;28;20134;-74
2021/07/05 11:11:21;;;;;;;6.90;4.20;;;;;;;22.45;56.99;100467.50;4969452;28;20039;-74
2021/07/05 11:13:48;;;;;;;3.53;3.22;;;;;;;22.70;54.79;100461.63;4970426;28;20105;-73
2021/07/05 11:16:14;;;;;;;5.82;3.95;;;;;;;23.22;54.55;100460.44;4969082;28;20042;-73